createdAt,value
2022-10-22T00:02:01.511Z,46.2
2022-10-22T00:07:01.556Z,46.7
2022-10-22T00:12:01.569Z,46.6
2022-10-22T00:17:01.609Z,46.9
2022-10-22T00:22:01.212Z,47.0
2022-10-22T00:27:01.567Z,46.5
2022-10-22T00:32:02.586Z,47.8
2022-10-22T00:37:01.518Z,48.9
2022-10-22T00:42:01.609Z,49.2
2022-10-22T00:47:01.435Z,48.7
2022-10-22T00:52:01.528Z,47.6
2022-10-22T00:57:01.504Z,47.8
2022-10-22T01:02:01.506Z,47.2
2022-10-22T01:07:01.545Z,47.6
2022-10-22T01:12:01.507Z,49.7
2022-10-22T01:17:01.602Z,53.0
2022-10-22T01:22:01.694Z,52.9
2022-10-22T01:27:01.500Z,52.5
2022-10-22T01:32:01.450Z,52.2
2022-10-22T01:37:01.457Z,51.6
2022-10-22T01:42:01.333Z,51.0
2022-10-22T01:47:01.317Z,50.0
2022-10-22T01:52:14.800Z,50.3
2022-10-22T01:57:01.412Z,51.0
2022-10-22T02:02:01.359Z,50.3
2022-10-22T02:07:01.359Z,49.8
2022-10-22T02:12:01.366Z,50.9
2022-10-22T02:17:01.283Z,51.9
2022-10-22T02:22:02.388Z,51.6
2022-10-22T02:27:01.335Z,51.4
2022-10-22T02:32:01.422Z,52.0
2022-10-22T02:37:01.398Z,50.8
2022-10-22T02:42:01.435Z,50.7
2022-10-22T02:47:01.576Z,51.1
2022-10-22T02:52:01.661Z,52.3
2022-10-22T02:57:01.551Z,51.6
2022-10-22T03:02:01.544Z,52.2
2022-10-22T03:07:01.583Z,52.0
2022-10-22T03:17:01.541Z,51.9
2022-10-22T03:22:01.570Z,52.3
2022-10-22T03:27:01.566Z,53.8
2022-10-22T03:32:01.547Z,54.0
2022-10-22T03:37:01.672Z,54.9
2022-10-22T03:42:01.664Z,55.2
2022-10-22T03:47:02.522Z,55.8
2022-10-22T03:52:01.603Z,55.6
2022-10-22T03:57:01.467Z,56.3
2022-10-22T04:02:01.553Z,56.0
2022-10-22T04:07:01.581Z,55.6
2022-10-22T04:17:01.576Z,54.2
2022-10-22T04:22:01.566Z,52.2
2022-10-22T04:27:01.576Z,50.5
2022-10-22T04:32:01.523Z,50.7
2022-10-22T04:37:01.700Z,50.1
2022-10-22T04:42:01.522Z,50.7
2022-10-22T04:47:01.539Z,52.1
2022-10-22T04:52:01.629Z,54.0
2022-10-22T04:57:01.517Z,52.9
2022-10-22T05:02:01.519Z,53.2
2022-10-22T05:07:01.579Z,53.0
2022-10-22T05:12:01.524Z,52.4
2022-10-22T05:17:01.529Z,51.7
2022-10-22T05:22:01.533Z,51.8
2022-10-22T05:27:01.564Z,51.7
2022-10-22T05:32:01.520Z,53.0
2022-10-22T05:37:01.636Z,53.6
2022-10-22T05:42:01.517Z,54.1
2022-10-22T05:47:01.532Z,53.5
2022-10-22T05:52:01.627Z,54.1
2022-10-22T05:57:01.510Z,53.0
2022-10-22T06:02:01.534Z,52.5
2022-10-22T06:07:01.548Z,52.4
2022-10-22T06:12:01.577Z,52.2
2022-10-22T06:17:01.516Z,51.0
2022-10-22T06:22:01.527Z,50.7
2022-10-22T06:27:01.536Z,50.9
2022-10-22T06:32:01.535Z,49.9
2022-10-22T06:37:01.696Z,50.7
2022-10-22T06:42:01.514Z,51.7
2022-10-22T06:47:01.429Z,51.3
2022-10-22T06:52:01.496Z,50.8
2022-10-22T06:57:01.534Z,51.4
2022-10-22T07:02:01.476Z,51.2
2022-10-22T07:07:01.484Z,49.8
2022-10-22T07:12:01.488Z,50.0
2022-10-22T07:17:01.434Z,50.3
2022-10-22T07:27:02.030Z,51.1
2022-10-22T07:32:01.517Z,52.3
2022-10-22T07:37:01.155Z,52.8
2022-10-22T07:42:01.502Z,52.4
2022-10-22T07:47:01.576Z,52.3
2022-10-22T07:52:01.565Z,51.6
2022-10-22T07:57:01.549Z,50.9
2022-10-22T08:02:01.567Z,50.2
2022-10-22T08:07:01.603Z,49.5
2022-10-22T08:12:01.543Z,48.6
2022-10-22T08:17:01.565Z,48.1
2022-10-22T08:22:02.060Z,47.5
2022-10-22T08:27:01.596Z,46.6
2022-10-22T08:32:01.244Z,47.1
2022-10-22T08:37:01.712Z,49.6
2022-10-22T08:42:13.598Z,49.0
2022-10-22T08:47:01.390Z,49.2
2022-10-22T08:52:01.393Z,45.5
2022-10-22T08:57:17.171Z,38.5
2022-10-22T09:02:01.067Z,29.5
2022-10-22T09:07:01.368Z,22.1
2022-10-22T09:12:01.098Z,14.0
2022-10-22T09:17:01.557Z,9.4
2022-10-22T09:22:16.655Z,8.2
2022-10-22T09:27:01.416Z,6.1
2022-10-22T09:32:02.135Z,5.0
2022-10-22T09:37:05.280Z,4.4
2022-10-22T09:42:01.558Z,4.2
2022-10-22T09:47:01.556Z,2.8
2022-10-22T09:52:01.560Z,2.2
2022-10-22T09:57:01.614Z,2.4
2022-10-22T10:02:08.359Z,1.7
2022-10-22T10:07:01.918Z,1.2
2022-10-22T10:12:15.881Z,0.9
2022-10-22T10:17:01.491Z,0.7
2022-10-22T10:22:01.494Z,0.4
2022-10-22T10:32:01.543Z,0.2
2022-10-22T10:47:12.611Z,0.1
2022-10-22T10:57:01.465Z,0.2
2022-10-22T11:02:01.463Z,0.4
2022-10-22T11:07:05.848Z,1.0
2022-10-22T11:12:01.602Z,1.3
2022-10-22T11:17:01.538Z,1.5
2022-10-22T11:22:01.528Z,1.7
2022-10-22T11:27:05.966Z,1.5
2022-10-22T11:32:01.519Z,1.0
2022-10-22T11:42:01.638Z,0.9
2022-10-22T11:47:01.606Z,0.6
2022-10-22T11:52:03.009Z,0.8
2022-10-22T11:57:01.512Z,0.9
2022-10-22T12:07:01.808Z,1.0
2022-10-22T12:17:01.417Z,0.8
2022-10-22T12:22:01.561Z,0.6
2022-10-22T12:27:01.545Z,0.4
2022-10-22T12:32:01.422Z,0.6
2022-10-22T12:37:03.545Z,0.8
2022-10-22T12:47:02.110Z,1.0
2022-10-22T12:52:01.482Z,0.7
2022-10-22T12:58:01.460Z,0.4
2022-10-22T13:03:01.493Z,0.2
2022-10-22T13:18:01.425Z,0.2
2022-10-22T13:23:01.573Z,0.4
2022-10-22T13:28:01.420Z,0.6
2022-10-22T13:33:01.517Z,1.0
2022-10-22T13:48:01.549Z,0.8
2022-10-22T13:58:01.539Z,0.6
2022-10-22T14:03:01.558Z,0.8
2022-10-22T14:13:01.646Z,1.2
2022-10-22T14:28:01.526Z,1.2
2022-10-22T14:33:01.564Z,1.0
2022-10-22T14:38:01.622Z,0.8
2022-10-22T14:43:01.515Z,1.0
2022-10-22T14:48:01.518Z,0.8
2022-10-22T15:03:01.935Z,0.6
2022-10-22T15:08:01.528Z,0.2
2022-10-22T15:33:02.620Z,0.2
2022-10-22T15:38:01.568Z,0.4
2022-10-22T15:43:02.354Z,1.1
2022-10-22T15:48:02.347Z,1.2
2022-10-22T15:53:02.466Z,1.6
2022-10-22T16:03:01.611Z,1.9
2022-10-22T16:08:01.529Z,1.8
2022-10-22T16:13:01.555Z,2.3
2022-10-22T16:18:01.531Z,3.1
2022-10-22T16:23:01.944Z,4.0
2022-10-22T16:28:01.561Z,4.6
2022-10-22T16:33:05.036Z,5.5
2022-10-22T16:38:01.942Z,6.7
2022-10-22T16:43:02.066Z,7.0
2022-10-22T16:48:01.528Z,7.8
2022-10-22T16:53:01.954Z,8.4
2022-10-22T16:58:01.502Z,8.7
2022-10-22T17:03:02.373Z,9.1
2022-10-22T17:08:01.504Z,10.5
2022-10-22T17:13:01.456Z,11.8
2022-10-22T17:18:01.410Z,12.5
2022-10-22T17:23:01.358Z,13.0
2022-10-22T17:28:02.329Z,12.0
2022-10-22T17:33:01.340Z,12.2
2022-10-22T17:38:01.302Z,14.6
2022-10-22T17:43:01.310Z,17.6
2022-10-22T17:48:01.313Z,20.9
2022-10-22T17:53:01.311Z,23.6
2022-10-22T17:58:01.246Z,24.6
2022-10-22T18:03:01.315Z,24.4
2022-10-22T18:08:04.269Z,23.3
2022-10-22T18:13:01.486Z,21.2
2022-10-22T18:18:01.515Z,20.8
2022-10-22T18:23:01.213Z,20.6
2022-10-22T18:28:01.517Z,19.2
2022-10-22T18:33:01.606Z,17.8
2022-10-22T18:38:01.275Z,16.3
2022-10-22T18:43:01.550Z,15.8
2022-10-22T18:48:01.631Z,15.0
2022-10-22T18:53:01.621Z,13.9
2022-10-22T18:58:01.517Z,13.8
2022-10-22T19:03:01.694Z,16.2
2022-10-22T19:08:01.589Z,15.8
2022-10-22T19:13:02.410Z,15.9
2022-10-22T19:18:01.564Z,17.1
2022-10-22T19:23:01.574Z,17.2
2022-10-22T19:28:01.586Z,15.2
2022-10-22T19:33:01.573Z,15.1
2022-10-22T19:38:01.541Z,14.6
2022-10-22T19:43:01.646Z,14.0
2022-10-22T19:48:01.528Z,13.9
2022-10-22T19:53:01.586Z,14.2
2022-10-22T19:58:01.603Z,14.1
2022-10-22T20:03:02.037Z,13.8
2022-10-22T20:08:01.820Z,12.9
2022-10-22T20:13:01.352Z,12.3
2022-10-22T20:18:01.284Z,12.2
2022-10-22T20:33:01.264Z,11.8
2022-10-22T20:43:01.630Z,11.1
2022-10-22T20:48:03.165Z,10.2
2022-10-22T20:53:01.553Z,9.6
2022-10-22T20:58:01.550Z,9.2
2022-10-22T21:03:01.533Z,9.1
2022-10-22T21:08:01.556Z,9.5
2022-10-22T21:13:01.574Z,10.1
2022-10-22T21:18:01.341Z,10.4
2022-10-22T21:23:01.297Z,10.5
2022-10-22T21:28:01.223Z,11.0
2022-10-22T21:33:02.070Z,11.2
2022-10-22T21:38:01.492Z,10.5
2022-10-22T21:43:01.485Z,10.6
2022-10-22T21:48:01.662Z,11.8
2022-10-22T21:53:02.085Z,11.4
2022-10-22T21:58:01.220Z,11.5
2022-10-22T22:03:00.946Z,12.0
2022-10-22T22:08:01.437Z,11.8
2022-10-22T22:13:01.308Z,11.2
2022-10-22T22:18:01.543Z,11.1
2022-10-22T22:23:01.532Z,10.7
2022-10-22T22:28:01.614Z,10.3
2022-10-22T22:33:01.565Z,10.6
2022-10-22T22:38:01.584Z,9.8
2022-10-22T22:43:01.267Z,9.7
2022-10-22T22:48:01.564Z,9.6
2022-10-22T22:53:01.679Z,9.3
2022-10-22T22:58:01.540Z,8.8
2022-10-22T23:03:01.590Z,9.4
2022-10-22T23:08:01.621Z,9.0
2022-10-22T23:13:01.567Z,8.8
2022-10-22T23:18:01.530Z,8.6
2022-10-22T23:23:01.558Z,8.4
2022-10-22T23:28:01.555Z,9.2
2022-10-22T23:33:01.617Z,10.1
2022-10-22T23:38:01.558Z,9.9
2022-10-22T23:43:01.623Z,10.6
2022-10-22T23:48:01.529Z,11.4
2022-10-22T23:53:01.560Z,10.8
2022-10-22T23:58:01.524Z,10.1
